Terminal Aerodrome Forecast
Issued by NWS Charleston, SC

Home | Current Version | Previous Version | Text Only | Print | Product List | Glossary On
Versions: 1 2 3 4 5 6 7 8 9 10 11 12 13 14 15 16 17 18 19 20 21 22 23 24 25
933
FTUS42 KCHS 251725
TAFCHS
TAF
KCHS 251725Z 2518/2618 26020G30KT P6SM FEW060 SCT250
     FM252300 25012G20KT P6SM FEW200
     FM260100 24008KT P6SM SKC
     FM261600 26010G17KT P6SM SKC=

USA.gov is the U.S. government's official web portal to all federal, state and local government web resources and services.